Time;durP1;ratioP1;P1;durP2;ratioP2;P2;SDS_P1;SDS_P2;PMS_P1;PMS_P2;Temp;Humidity;BMP_temperature;BMP_pressure;BME280_temperature;BME280_humidity;BME280_pressure;Samples;Min_cycle;Max_cycle;Signal;HPM_P1;HPM_P2
2022/03/14 00:02:17;;;;;;;14.70;11.73;;;9.80;78.20;;;;;;5048112;28;20561;-79
2022/03/14 00:04:42;;;;;;;15.48;10.52;;;9.20;78.10;;;;;;5066626;28;20447;-80
2022/03/14 00:07:11;;;;;;;14.15;11.35;;;9.70;78.80;;;;;;5048794;28;20048;-80
2022/03/14 00:09:36;;;;;;;18.20;11.80;;;9.80;79.10;;;;;;5065200;28;20098;-79
2022/03/14 00:12:04;;;;;;;14.68;10.82;;;9.70;79.50;;;;;;5050022;28;20048;-79
2022/03/14 00:14:30;;;;;;;14.18;10.02;;;9.80;80.30;;;;;;5053562;28;20438;-79
2022/03/14 00:16:56;;;;;;;16.17;11.10;;;9.70;81.30;;;;;;5070121;28;20049;-79
2022/03/14 00:19:22;;;;;;;13.13;11.02;;;9.80;81.60;;;;;;5053548;28;20102;-78
2022/03/14 00:21:49;;;;;;;14.57;11.35;;;10.70;82.60;;;;;;5053394;28;20673;-79
2022/03/14 00:24:15;;;;;;;12.15;10.23;;;10.80;82.70;;;;;;5071657;28;20049;-78
2022/03/14 00:26:41;;;;;;;10.88;9.68;;;9.20;82.80;;;;;;5071108;28;20120;-79
2022/03/14 00:29:07;;;;;;;14.93;10.50;;;9.70;83.20;;;;;;5051212;28;20128;-79
2022/03/14 00:31:33;;;;;;;14.57;10.95;;;9.50;83.70;;;;;;5053124;28;20135;-79
2022/03/14 00:33:59;;;;;;;13.60;10.65;;;9.50;84.00;;;;;;5051825;28;20116;-79
2022/03/14 00:36:25;;;;;;;14.45;11.57;;;9.20;84.40;;;;;;5051643;28;20408;-80
2022/03/14 00:38:52;;;;;;;16.20;11.27;;;10.70;85.60;;;;;;5068985;28;20106;-78
2022/03/14 00:41:18;;;;;;;11.18;9.73;;;11.60;86.60;;;;;;5052540;28;20028;-78
2022/03/14 00:43:44;;;;;;;14.70;10.90;;;9.50;86.20;;;;;;5051831;28;20071;-78
2022/03/14 00:46:10;;;;;;;13.13;9.57;;;11.10;87.10;;;;;;5068867;28;20048;-78
2022/03/14 00:48:36;;;;;;;15.00;9.82;;;9.60;86.80;;;;;;5051409;28;20036;-79
2022/03/14 00:51:05;;;;;;;12.30;9.77;;;9.20;86.50;;;;;;5068086;28;20483;-79
2022/03/14 00:53:31;;;;;;;12.20;9.73;;;11.40;88.50;;;;;;5051837;28;20036;-78
2022/03/14 00:55:59;;;;;;;11.18;9.63;;;11.50;89.00;;;;;;5059894;28;20450;-79
2022/03/14 00:58:26;;;;;;;12.65;9.98;;;9.80;88.00;;;;;;5066416;28;20091;-79
2022/03/14 01:00:51;;;;;;;12.43;8.95;;;11.10;89.50;;;;;;5052189;28;20102;-81
2022/03/14 01:03:17;;;;;;;12.48;10.02;;;10.70;89.00;;;;;;5051935;28;20067;-81
2022/03/14 01:05:43;;;;;;;12.13;9.63;;;9.40;88.50;;;;;;5069908;28;20058;-80
2022/03/14 01:08:08;;;;;;;15.18;10.48;;;9.70;88.90;;;;;;5050741;28;20036;-79
2022/03/14 01:10:34;;;;;;;13.55;10.10;;;11.60;90.00;;;;;;5069173;28;20655;-78
2022/03/14 01:13:03;;;;;;;15.13;9.98;;;9.80;89.20;;;;;;5067271;28;20040;-79
2022/03/14 01:15:34;;;;;;;12.00;10.52;;;9.80;89.30;;;;;;5035909;28;20040;-79
2022/03/14 01:18:00;;;;;;;12.23;9.98;;;9.80;89.70;;;;;;5026125;28;20094;-79
2022/03/14 01:20:26;;;;;;;11.35;9.32;;;9.90;90.00;;;;;;5051322;28;20047;-78
2022/03/14 01:22:54;;;;;;;13.35;9.70;;;11.40;90.30;;;;;;5067156;28;20127;-78
2022/03/14 01:25:20;;;;;;;11.02;9.27;;;10.00;90.00;;;;;;5067777;28;20511;-78
2022/03/14 01:27:46;;;;;;;10.68;9.27;;;9.90;90.00;;;;;;5050862;28;20075;-80
2022/03/14 01:30:14;;;;;;;12.43;10.00;;;9.40;90.00;;;;;;5051600;28;20041;-79
2022/03/14 01:32:40;;;;;;;12.82;9.35;;;11.00;90.50;;;;;;5050140;28;20036;-79
2022/03/14 01:35:06;;;;;;;10.80;9.70;;;9.80;90.20;;;;;;5069158;28;20043;-79
2022/03/14 01:37:33;;;;;;;10.60;9.10;;;9.90;90.40;;;;;;5035300;28;20052;-79
2022/03/14 01:39:59;;;;;;;14.38;10.30;;;9.80;90.40;;;;;;5067374;28;20447;-78
2022/03/14 01:42:25;;;;;;;12.32;9.27;;;11.20;90.80;;;;;;5063090;28;20639;-80
2022/03/14 01:44:51;;;;;;;10.10;8.48;;;11.70;91.10;;;;;;5066922;28;20674;-79
2022/03/14 01:47:17;;;;;;;12.25;9.10;;;10.20;90.60;;;;;;5066569;28;20495;-79
2022/03/14 01:49:43;;;;;;;10.98;9.05;;;9.80;90.80;;;;;;5050755;28;20052;-79
2022/03/14 01:52:10;;;;;;;9.95;8.95;;;9.80;90.70;;;;;;5050500;28;20041;-79
2022/03/14 01:54:37;;;;;;;9.93;7.88;;;9.80;90.70;;;;;;5068498;28;20132;-80
2022/03/14 01:57:04;;;;;;;11.50;9.13;;;9.80;90.80;;;;;;5066004;28;20066;-78
2022/03/14 01:59:30;;;;;;;12.00;10.02;;;9.80;90.90;;;;;;5046609;28;20044;-79
2022/03/14 02:01:56;;;;;;;10.93;9.32;;;9.70;91.00;;;;;;5049936;28;20087;-78
2022/03/14 02:04:22;;;;;;;11.30;9.18;;;9.70;91.30;;;;;;5050276;28;20440;-79
2022/03/14 02:06:49;;;;;;;10.27;8.48;;;9.50;91.30;;;;;;5050027;28;20119;-78
2022/03/14 02:09:15;;;;;;;9.27;8.35;;;9.60;91.30;;;;;;5065579;28;20049;-82
2022/03/14 02:12:11;;;;;;;13.15;9.10;;;11.50;91.80;;;;;;5066649;28;20037;-80
2022/03/14 02:14:39;;;;;;;11.07;8.73;;;9.70;91.40;;;;;;5038130;28;20048;-80
2022/03/14 02:17:15;;;;;;;11.50;8.85;;;9.40;91.40;;;;;;5058839;28;20044;-80
2022/03/14 02:19:42;;;;;;;11.27;8.75;;;11.40;91.90;;;;;;5050188;28;20040;-80
2022/03/14 02:22:13;;;;;;;11.75;8.88;;;9.40;91.40;;;;;;5045424;28;20062;-79
2022/03/14 02:24:44;;;;;;;11.82;9.23;;;9.70;91.70;;;;;;5050676;28;20476;-79
2022/03/14 02:27:11;;;;;;;12.23;9.40;;;9.70;91.60;;;;;;5066828;28;20099;-80
2022/03/14 02:29:37;;;;;;;13.13;9.15;;;9.30;91.50;;;;;;5049808;28;20040;-81
2022/03/14 02:32:04;;;;;;;12.77;9.23;;;9.20;91.50;;;;;;5056019;28;20391;-79
2022/03/14 02:34:29;;;;;;;14.07;9.38;;;9.70;91.70;;;;;;5066220;28;20036;-79
2022/03/14 02:36:55;;;;;;;10.43;9.00;;;9.50;91.70;;;;;;5049184;28;20055;-80
2022/03/14 02:39:21;;;;;;;9.85;8.75;;;9.70;91.80;;;;;;5066970;28;20392;-79
2022/03/14 02:41:47;;;;;;;14.18;9.00;;;9.70;91.80;;;;;;5065509;28;20036;-79
2022/03/14 02:44:13;;;;;;;9.43;8.27;;;10.40;92.10;;;;;;5054948;28;20044;-79
2022/03/14 02:46:40;;;;;;;10.07;8.95;;;9.50;91.90;;;;;;5046693;28;20101;-79
2022/03/14 02:49:07;;;;;;;10.32;8.75;;;11.30;92.40;;;;;;5060095;28;20097;-80
2022/03/14 02:51:39;;;;;;;9.68;8.68;;;9.70;92.30;;;;;;5062150;28;20060;-79
2022/03/14 02:54:10;;;;;;;12.27;9.30;;;9.60;92.00;;;;;;5050389;28;20036;-79
2022/03/14 02:56:40;;;;;;;9.40;8.10;;;9.70;92.20;;;;;;5048184;28;20036;-79
2022/03/14 02:59:07;;;;;;;11.38;8.93;;;9.60;92.20;;;;;;5059256;28;20599;-80
2022/03/14 03:01:33;;;;;;;9.75;7.97;;;9.30;92.20;;;;;;5046556;28;20131;-79
2022/03/14 03:03:59;;;;;;;9.48;8.05;;;9.40;92.20;;;;;;5042180;28;20039;-78
2022/03/14 03:06:25;;;;;;;10.65;8.55;;;10.40;92.60;;;;;;5044040;28;20036;-79
2022/03/14 03:08:52;;;;;;;9.30;7.57;;;9.70;92.50;;;;;;5056927;28;20065;-80
2022/03/14 03:11:18;;;;;;;8.60;7.63;;;9.70;92.50;;;;;;5048233;28;20404;-80
2022/03/14 03:13:46;;;;;;;9.63;7.75;;;9.50;92.40;;;;;;5049605;28;20496;-78
2022/03/14 03:16:14;;;;;;;11.93;7.18;;;9.70;92.60;;;;;;5041884;28;20480;-79
2022/03/14 03:18:44;;;;;;;12.10;7.22;;;9.70;92.70;;;;;;5041468;28;20047;-79
2022/03/14 03:21:10;;;;;;;8.32;7.13;;;9.50;92.60;;;;;;5045157;28;20041;-79
2022/03/14 03:23:36;;;;;;;10.27;7.65;;;10.80;93.00;;;;;;5089265;28;20083;-80
2022/03/14 03:26:04;;;;;;;8.30;6.95;;;9.50;93.00;;;;;;5044726;28;20033;-82
2022/03/14 03:28:35;;;;;;;8.27;7.47;;;9.10;92.90;;;;;;5064895;28;20059;-81
2022/03/14 03:31:18;;;;;;;7.13;6.43;;;9.50;93.10;;;;;;5042348;28;20523;-80
2022/03/14 03:33:44;;;;;;;8.90;7.07;;;9.60;93.30;;;;;;5039406;28;20055;-78
2022/03/14 03:36:10;;;;;;;7.65;6.95;;;9.60;93.30;;;;;;5063871;28;20045;-79
2022/03/14 03:38:36;;;;;;;7.35;6.55;;;11.10;93.70;;;;;;5042258;28;20411;-80
2022/03/14 03:41:03;;;;;;;7.47;6.70;;;11.00;93.70;;;;;;5057521;28;20106;-80
2022/03/14 03:43:28;;;;;;;10.57;7.47;;;9.60;93.40;;;;;;5066027;28;20487;-81
2022/03/14 03:45:54;;;;;;;7.72;6.93;;;9.10;93.50;;;;;;5049043;28;20090;-80
2022/03/14 03:48:20;;;;;;;8.48;6.18;;;9.50;93.70;;;;;;5052983;28;20404;-79
2022/03/14 03:50:47;;;;;;;7.93;7.13;;;11.00;94.10;;;;;;5052862;28;20059;-82
2022/03/14 03:53:13;;;;;;;8.80;6.70;;;9.40;93.70;;;;;;5068771;28;20472;-80
2022/03/14 03:55:39;;;;;;;7.53;6.68;;;9.30;93.80;;;;;;5069748;28;20055;-80
2022/03/14 03:58:05;;;;;;;7.30;6.57;;;9.20;93.90;;;;;;5067889;28;20494;-80
2022/03/14 04:00:31;;;;;;;8.98;6.30;;;9.00;93.70;;;;;;5070349;28;20407;-79
2022/03/14 04:02:58;;;;;;;10.45;6.22;;;9.20;93.90;;;;;;5068277;28;20044;-79
2022/03/14 04:05:25;;;;;;;6.13;5.53;;;10.60;94.20;;;;;;5070222;28;20119;-81
2022/03/14 04:07:54;;;;;;;7.32;5.68;;;9.10;93.90;;;;;;5070329;28;20124;-79
2022/03/14 04:10:19;;;;;;;6.10;5.20;;;11.40;94.60;;;;;;5070218;28;20043;-78
2022/03/14 04:12:45;;;;;;;6.63;5.65;;;9.50;93.90;;;;;;5068791;28;20127;-80
2022/03/14 04:15:12;;;;;;;6.97;5.18;;;9.50;94.10;;;;;;5070102;28;20036;-80
2022/03/14 04:17:39;;;;;;;6.20;5.60;;;9.20;94.10;;;;;;5068868;28;20045;-80
2022/03/14 04:20:06;;;;;;;6.28;5.40;;;9.00;94.00;;;;;;5068512;28;20048;-81
2022/03/14 04:22:35;;;;;;;5.88;4.60;;;9.50;94.20;;;;;;5069659;28;20036;-79
2022/03/14 04:25:00;;;;;;;5.18;4.55;;;9.30;94.20;;;;;;5067811;28;20059;-80
2022/03/14 04:27:26;;;;;;;6.07;5.00;;;9.50;94.30;;;;;;5068733;28;20068;-80
2022/03/14 04:29:54;;;;;;;5.07;4.50;;;9.20;94.30;;;;;;5069287;28;20450;-81
2022/03/14 04:32:19;;;;;;;4.22;3.88;;;9.50;94.40;;;;;;5070101;28;20109;-80
2022/03/14 04:34:45;;;;;;;6.57;4.63;;;9.50;94.70;;;;;;5067934;28;20484;-79
2022/03/14 04:37:13;;;;;;;3.97;3.67;;;9.30;94.70;;;;;;5069727;28;20166;-80
2022/03/14 04:39:40;;;;;;;4.30;3.90;;;9.40;94.80;;;;;;5070350;28;20051;-80
2022/03/14 04:42:07;;;;;;;6.63;3.90;;;9.50;94.90;;;;;;5068416;28;20408;-81
2022/03/14 04:44:34;;;;;;;4.30;3.90;;;9.60;95.00;;;;;;5069209;28;20055;-80
2022/03/14 04:47:00;;;;;;;4.60;3.92;;;9.10;94.90;;;;;;5069261;28;20037;-81
2022/03/14 04:49:26;;;;;;;6.28;3.80;;;10.90;95.60;;;;;;5069527;28;20036;-81
2022/03/14 04:51:54;;;;;;;3.97;3.67;;;9.40;95.20;;;;;;5069143;28;20055;-80
2022/03/14 04:54:19;;;;;;;4.57;3.65;;;10.70;95.40;;;;;;5069967;28;20139;-80
2022/03/14 04:56:45;;;;;;;3.95;3.65;;;9.20;95.10;;;;;;5069340;28;20127;-80
2022/03/14 04:59:11;;;;;;;3.53;3.15;;;9.10;95.10;;;;;;5069163;28;20093;-80
2022/03/14 05:01:37;;;;;;;6.43;3.40;;;10.80;95.70;;;;;;5070182;28;20458;-82
2022/03/14 05:04:03;;;;;;;3.05;2.85;;;9.20;95.40;;;;;;5066287;28;20054;-80
2022/03/14 05:06:29;;;;;;;3.95;2.60;;;9.50;95.70;;;;;;5066555;28;20036;-80
2022/03/14 05:08:54;;;;;;;3.50;3.20;;;9.10;95.80;;;;;;5066541;28;20131;-80
2022/03/14 05:11:20;;;;;;;7.47;3.33;;;9.20;95.80;;;;;;5062324;28;20049;-78
2022/03/14 05:13:46;;;;;;;3.15;2.85;;;9.50;95.90;;;;;;5066217;28;20461;-82
2022/03/14 05:16:11;;;;;;;4.10;2.50;;;10.50;96.50;;;;;;5066908;28;20591;-80
2022/03/14 05:18:38;;;;;;;4.35;2.90;;;9.50;96.00;;;;;;5067739;28;20052;-80
2022/03/14 05:21:04;;;;;;;2.95;2.75;;;11.20;96.40;;;;;;5069476;28;20439;-81
2022/03/14 05:23:29;;;;;;;2.72;2.53;;;9.30;95.90;;;;;;5068437;28;20045;-84
2022/03/14 05:25:55;;;;;;;2.95;2.50;;;9.60;96.20;;;;;;5068258;28;20048;-79
2022/03/14 05:28:21;;;;;;;3.03;2.80;;;9.60;96.50;;;;;;5068095;28;20062;-80
2022/03/14 05:30:47;;;;;;;2.70;2.40;;;11.50;96.80;;;;;;5069696;28;20048;-82
2022/03/14 05:33:13;;;;;;;2.63;2.42;;;9.60;96.50;;;;;;5068678;28;20097;-81
2022/03/14 05:35:39;;;;;;;2.45;2.25;;;9.30;96.30;;;;;;5068924;28;20076;-82
2022/03/14 05:38:04;;;;;;;2.25;2.15;;;9.50;96.40;;;;;;5063628;28;20040;-82
2022/03/14 05:40:30;;;;;;;2.78;2.30;;;9.30;96.60;;;;;;5064567;28;20044;-79
2022/03/14 05:42:57;;;;;;;2.60;2.40;;;9.40;96.60;;;;;;5068010;28;20082;-78
2022/03/14 05:45:23;;;;;;;2.20;2.10;;;9.50;96.80;;;;;;5067471;28;20060;-78
2022/03/14 05:47:49;;;;;;;2.38;2.28;;;9.50;97.00;;;;;;5067324;28;20780;-79
2022/03/14 05:50:15;;;;;;;2.60;2.40;;;9.40;97.10;;;;;;5069148;28;20132;-81
2022/03/14 05:52:41;;;;;;;2.08;1.98;;;11.40;97.80;;;;;;5068247;28;20067;-79
2022/03/14 05:55:08;;;;;;;2.53;2.33;;;9.60;97.50;;;;;;5068105;28;20143;-79
2022/03/14 05:57:34;;;;;;;2.95;2.75;;;9.60;97.60;;;;;;5067312;28;20044;-79
2022/03/14 05:59:59;;;;;;;2.17;2.08;;;9.60;98.00;;;;;;5048076;28;20090;-80
2022/03/14 06:02:25;;;;;;;2.25;2.15;;;9.50;98.10;;;;;;5072658;28;20079;-81
2022/03/14 06:04:52;;;;;;;2.33;2.17;;;9.50;98.00;;;;;;5068174;28;20106;-80
2022/03/14 06:07:19;;;;;;;2.77;2.40;;;9.50;98.20;;;;;;4712742;28;10000442;-79
2022/03/14 06:09:46;;;;;;;4.22;2.50;;;9.50;98.10;;;;;;5061489;28;20575;-79
2022/03/14 06:12:21;;;;;;;2.63;2.42;;;9.50;98.40;;;;;;5048058;28;20503;-79
2022/03/14 06:14:47;;;;;;;2.58;2.38;;;8.90;98.20;;;;;;5046398;28;20089;-79
2022/03/14 06:17:13;;;;;;;3.67;2.70;;;9.50;98.40;;;;;;5041213;28;20056;-79
2022/03/14 06:19:38;;;;;;;2.70;2.50;;;9.20;98.60;;;;;;5048532;28;20585;-79
2022/03/14 06:22:10;;;;;;;2.60;2.38;;;10.90;99.10;;;;;;5048264;28;20036;-79
2022/03/14 06:24:39;;;;;;;2.90;2.50;;;10.40;99.00;;;;;;5064428;28;20033;-81
2022/03/14 06:27:04;;;;;;;3.58;2.22;;;10.80;99.30;;;;;;5061518;28;20039;-80
2022/03/14 06:29:30;;;;;;;2.53;2.33;;;9.50;99.00;;;;;;5042093;28;20059;-81
2022/03/14 06:31:55;;;;;;;3.50;2.63;;;10.90;99.30;;;;;;5054805;28;20082;-84
2022/03/14 06:34:21;;;;;;;2.33;2.13;;;9.50;99.00;;;;;;5058264;28;20228;-85
2022/03/14 06:36:47;;;;;;;2.58;2.38;;;9.40;99.00;;;;;;5054876;28;20044;-78
2022/03/14 06:39:13;;;;;;;2.92;2.50;;;9.50;99.10;;;;;;5076071;28;20033;-78
2022/03/14 06:41:40;;;;;;;3.05;2.75;;;11.20;99.60;;;;;;5046279;28;20044;-83
2022/03/14 06:44:06;;;;;;;2.60;2.40;;;9.50;99.10;;;;;;5046896;28;20546;-79
2022/03/14 06:46:32;;;;;;;2.50;2.35;;;9.50;99.30;;;;;;5063568;28;20036;-80
2022/03/14 06:48:59;;;;;;;2.50;2.30;;;10.20;99.60;;;;;;5063600;28;20044;-83
2022/03/14 06:51:28;;;;;;;2.67;2.47;;;9.50;99.30;;;;;;5061936;28;20041;-79
2022/03/14 06:53:53;;;;;;;2.78;2.55;;;10.90;99.90;;;;;;5061314;28;20064;-78
2022/03/14 06:56:20;;;;;;;2.70;2.50;;;10.70;99.80;;;;;;5061252;28;20435;-78
2022/03/14 06:58:47;;;;;;;5.03;2.97;;;9.40;99.60;;;;;;5059079;28;20111;-79
2022/03/14 07:01:18;;;;;;;3.63;3.13;;;9.40;99.60;;;;;;5064207;28;20434;-79
2022/03/14 07:03:43;;;;;;;3.00;2.70;;;11.10;99.90;;;;;;5064084;28;20503;-78
2022/03/14 07:06:09;;;;;;;2.10;2.00;;;9.50;99.90;;;;;;5065625;28;20090;-79
2022/03/14 07:08:34;;;;;;;2.95;2.75;;;9.30;99.90;;;;;;5065790;28;20481;-79
2022/03/14 07:11:00;;;;;;;3.65;3.33;;;9.30;99.90;;;;;;5063943;28;20086;-78
2022/03/14 07:13:28;;;;;;;2.85;2.63;;;9.30;99.90;;;;;;5067119;28;20117;-78
2022/03/14 07:15:53;;;;;;;3.70;3.00;;;9.50;99.90;;;;;;5050112;28;20511;-78
2022/03/14 07:18:19;;;;;;;3.17;2.88;;;9.40;99.90;;;;;;5032228;28;20049;-77
2022/03/14 07:20:49;;;;;;;5.32;2.92;;;10.40;99.90;;;;;;5065678;28;20071;-79
2022/03/14 07:23:15;;;;;;;3.60;3.13;;;9.40;99.90;;;;;;5053392;28;20636;-80
2022/03/14 07:25:41;;;;;;;3.00;2.70;;;10.80;99.90;;;;;;5047936;28;20040;-79
2022/03/14 07:28:08;;;;;;;3.25;2.95;;;10.40;99.90;;;;;;5052087;28;20052;-79
2022/03/14 07:30:35;;;;;;;3.58;3.28;;;9.20;99.90;;;;;;5066638;28;20130;-80
2022/03/14 07:33:03;;;;;;;3.20;3.00;;;9.20;99.90;;;;;;5071003;28;20059;-79
2022/03/14 07:35:29;;;;;;;3.45;3.15;;;9.00;99.90;;;;;;5053563;28;20044;-79
2022/03/14 07:37:55;;;;;;;3.42;3.13;;;9.20;99.90;;;;;;5070441;28;20049;-79
2022/03/14 07:40:21;;;;;;;3.38;3.08;;;9.40;99.90;;;;;;5069491;28;20135;-79
2022/03/14 07:42:49;;;;;;;2.75;2.53;;;9.40;99.90;;;;;;5052092;28;20047;-79
2022/03/14 07:45:17;;;;;;;4.00;3.63;;;9.40;99.90;;;;;;5051647;28;20052;-79
2022/03/14 07:47:43;;;;;;;3.22;2.92;;;10.60;99.90;;;;;;5063713;28;20060;-79
2022/03/14 07:50:13;;;;;;;3.60;3.33;;;10.90;99.90;;;;;;5045073;28;20533;-79
2022/03/14 07:52:39;;;;;;;4.03;3.65;;;10.80;99.90;;;;;;5054458;28;20045;-78
2022/03/14 07:55:06;;;;;;;3.00;2.80;;;8.90;99.90;;;;;;5071659;28;20131;-82
2022/03/14 07:57:33;;;;;;;3.83;3.38;;;9.40;99.90;;;;;;5072327;28;20053;-79
2022/03/14 08:00:05;;;;;;;5.72;3.38;;;9.20;99.90;;;;;;5065276;28;20040;-78
2022/03/14 08:02:30;;;;;;;3.90;3.60;;;9.40;99.90;;;;;;5053929;28;20090;-82
2022/03/14 08:04:56;;;;;;;4.05;3.75;;;10.80;99.90;;;;;;5046996;28;20066;-77
2022/03/14 08:07:23;;;;;;;3.25;3.03;;;9.40;99.90;;;;;;5066282;28;20551;-79
2022/03/14 08:09:48;;;;;;;3.50;3.30;;;9.50;99.90;;;;;;5054606;28;20041;-79
2022/03/14 08:12:15;;;;;;;3.75;3.20;;;9.80;99.90;;;;;;5053284;28;20090;-83
2022/03/14 08:14:43;;;;;;;3.97;3.50;;;9.50;99.90;;;;;;5064911;28;20047;-79
2022/03/14 08:17:12;;;;;;;4.22;3.85;;;10.00;99.90;;;;;;5072023;28;20119;-82
2022/03/14 08:19:37;;;;;;;3.83;3.53;;;9.50;99.90;;;;;;5071743;28;20124;-85
2022/03/14 08:22:03;;;;;;;3.70;3.22;;;9.50;99.90;;;;;;5070656;28;20110;-78
2022/03/14 08:24:32;;;;;;;3.83;3.55;;;9.50;99.90;;;;;;5071709;28;20059;-79
2022/03/14 08:26:57;;;;;;;4.07;3.67;;;9.50;99.90;;;;;;5053700;28;20040;-78
2022/03/14 08:29:23;;;;;;;3.80;3.50;;;9.30;99.90;;;;;;5071793;28;20102;-79
2022/03/14 08:31:50;;;;;;;4.43;3.72;;;9.00;99.90;;;;;;5070863;28;20131;-79
2022/03/14 08:34:16;;;;;;;4.15;3.85;;;9.50;99.90;;;;;;5053653;28;20783;-84
2022/03/14 08:36:42;;;;;;;3.80;3.50;;;9.40;99.90;;;;;;5070302;28;20032;-82
2022/03/14 08:39:08;;;;;;;4.13;3.80;;;10.40;99.90;;;;;;5050837;28;20036;-78
2022/03/14 08:41:36;;;;;;;4.00;3.70;;;9.50;99.90;;;;;;5043454;28;20045;-78
2022/03/14 08:44:05;;;;;;;3.92;3.63;;;9.50;99.90;;;;;;5054401;28;20510;-78
2022/03/14 08:46:31;;;;;;;3.58;3.28;;;9.60;99.90;;;;;;5053879;28;20162;-83
2022/03/14 08:48:57;;;;;;;4.25;3.95;;;11.10;99.90;;;;;;5053187;28;20123;-79
2022/03/14 08:51:23;;;;;;;4.03;3.72;;;11.10;99.90;;;;;;5071037;28;20052;-84
2022/03/14 08:53:48;;;;;;;4.13;3.72;;;9.50;99.90;;;;;;5071163;28;20138;-83
2022/03/14 08:56:14;;;;;;;4.75;4.00;;;9.50;99.90;;;;;;5048649;28;20475;-79
2022/03/14 08:58:40;;;;;;;4.18;3.85;;;8.90;99.90;;;;;;5050897;28;20504;-85
2022/03/14 09:01:07;;;;;;;4.90;4.32;;;9.60;99.90;;;;;;5054148;28;20057;-79
2022/03/14 09:03:32;;;;;;;5.05;4.57;;;9.30;99.90;;;;;;5053296;28;20032;-78
2022/03/14 09:05:58;;;;;;;5.47;5.05;;;10.70;99.90;;;;;;5071059;28;20048;-79
2022/03/14 09:08:26;;;;;;;5.53;5.03;;;10.80;99.90;;;;;;5066266;28;20040;-79
2022/03/14 09:10:53;;;;;;;5.13;4.63;;;9.60;99.90;;;;;;5069842;28;20044;-78
2022/03/14 09:13:23;;;;;;;5.55;5.10;;;11.20;99.90;;;;;;5036921;28;20410;-79
2022/03/14 09:15:50;;;;;;;5.88;5.38;;;9.60;99.90;;;;;;5070073;28;20049;-79
2022/03/14 09:18:20;;;;;;;5.55;5.10;;;9.60;99.90;;;;;;5070838;28;20045;-79
2022/03/14 09:20:48;;;;;;;7.07;6.20;;;11.10;99.90;;;;;;5063725;28;20064;-78
2022/03/14 09:23:14;;;;;;;7.35;5.90;;;9.40;99.90;;;;;;5062399;28;20436;-79
2022/03/14 09:25:40;;;;;;;6.72;6.20;;;9.30;99.90;;;;;;5071791;28;20059;-78
2022/03/14 09:28:06;;;;;;;8.93;7.72;;;9.50;99.90;;;;;;5071063;28;20053;-81
2022/03/14 09:30:32;;;;;;;16.33;14.60;;;9.50;99.90;;;;;;5069733;28;20043;-78
2022/03/14 09:33:13;;;;;;;11.55;10.35;;;9.40;99.90;;;;;;5060625;28;20518;-79
2022/03/14 09:35:40;;;;;;;12.00;10.73;;;8.90;99.90;;;;;;5063320;28;20514;-79
2022/03/14 09:38:07;;;;;;;12.43;11.23;;;11.30;99.90;;;;;;5068595;28;20532;-80
2022/03/14 09:40:33;;;;;;;13.80;12.40;;;9.00;99.90;;;;;;5053333;28;20093;-80
2022/03/14 09:43:01;;;;;;;15.35;13.85;;;11.30;99.90;;;;;;5069401;28;20530;-80
2022/03/14 09:45:27;;;;;;;18.30;16.50;;;9.20;99.90;;;;;;5068677;28;20173;-83
2022/03/14 09:47:57;;;;;;;15.75;14.15;;;9.10;99.90;;;;;;5052637;28;20040;-80
2022/03/14 09:50:30;;;;;;;19.75;17.65;;;9.10;99.90;;;;;;5066069;28;20400;-82
2022/03/14 09:52:56;;;;;;;18.92;16.10;;;9.30;99.90;;;;;;5065893;28;20492;-80
2022/03/14 09:55:22;;;;;;;19.58;16.75;;;8.90;99.90;;;;;;5053042;28;20067;-82
2022/03/14 09:57:48;;;;;;;19.65;16.98;;;8.80;99.90;;;;;;5070750;28;20468;-81
2022/03/14 10:00:15;;;;;;;21.75;18.40;;;9.20;99.90;;;;;;5051895;28;20044;-81
2022/03/14 10:02:43;;;;;;;17.50;15.57;;;9.00;99.90;;;;;;5053308;28;20041;-81
2022/03/14 10:05:10;;;;;;;22.83;17.42;;;9.00;99.90;;;;;;5052415;28;20044;-81
2022/03/14 10:07:36;;;;;;;19.20;15.25;;;10.20;99.90;;;;;;5051926;28;20048;-81
2022/03/14 10:10:06;;;;;;;16.38;12.35;;;8.90;99.90;;;;;;5069513;28;20036;-81
2022/03/14 10:12:33;;;;;;;19.50;15.70;;;9.00;99.90;;;;;;5052388;28;20047;-81
2022/03/14 10:15:04;;;;;;;21.77;16.38;;;8.90;99.90;;;;;;5068950;28;20566;-80
2022/03/14 10:17:30;;;;;;;19.50;14.05;;;8.90;99.90;;;;;;5068548;28;20067;-80
2022/03/14 10:20:01;;;;;;;17.30;13.30;;;8.90;99.90;;;;;;5068985;28;20131;-80
2022/03/14 10:22:35;;;;;;;19.52;13.55;;;8.60;99.90;;;;;;5068461;28;20552;-81
2022/03/14 10:25:21;;;;;;;16.23;12.93;;;11.00;99.90;;;;;;5069193;28;20113;-81
2022/03/14 10:27:49;;;;;;;19.35;12.13;;;8.90;99.90;;;;;;5059744;28;20071;-80
2022/03/14 10:30:29;;;;;;;15.80;10.95;;;8.90;99.90;;;;;;5069233;28;20051;-79
2022/03/14 10:33:11;;;;;;;18.40;11.88;;;9.00;99.90;;;;;;5096095;28;20037;-81
2022/03/14 10:35:38;;;;;;;17.65;11.35;;;9.00;99.90;;;;;;5068470;28;20056;-83
2022/03/14 10:38:06;;;;;;;17.35;11.82;;;9.00;99.90;;;;;;5065502;28;20033;-80
2022/03/14 10:40:35;;;;;;;17.67;12.18;;;8.90;99.90;;;;;;5069394;28;20404;-81
2022/03/14 10:43:01;;;;;;;16.70;10.25;;;9.10;99.90;;;;;;5051790;28;20093;-79
2022/03/14 10:45:30;;;;;;;17.02;9.50;;;8.80;99.90;;;;;;5068174;28;20040;-79
2022/03/14 10:47:57;;;;;;;16.73;10.45;;;10.60;99.90;;;;;;5074838;28;20062;-80
2022/03/14 10:50:35;;;;;;;15.05;9.45;;;8.90;99.90;;;;;;5059711;28;20039;-80
2022/03/14 10:53:04;;;;;;;22.00;9.40;;;9.20;99.90;;;;;;5051585;28;20506;-81
2022/03/14 10:55:35;;;;;;;19.77;10.68;;;9.20;99.90;;;;;;5051091;28;20131;-81
2022/03/14 10:58:12;;;;;;;17.00;8.50;;;9.40;99.90;;;;;;5061517;28;20032;-81
2022/03/14 11:00:44;;;;;;;21.85;8.95;;;9.20;99.90;;;;;;5052210;28;20059;-80
2022/03/14 11:03:10;;;;;;;16.67;8.80;;;9.30;99.90;;;;;;5067780;28;20032;-80
2022/03/14 11:05:43;;;;;;;13.68;7.80;;;9.30;99.90;;;;;;5036236;28;20037;-80
2022/03/14 11:08:31;;;;;;;14.65;8.60;;;9.80;99.90;;;;;;5068949;28;20120;-80
2022/03/14 11:10:58;;;;;;;15.68;9.32;;;9.30;99.90;;;;;;5077718;28;20446;-79
2022/03/14 11:13:26;;;;;;;14.10;9.57;;;9.20;99.90;;;;;;5069488;28;20045;-79
2022/03/14 11:15:52;;;;;;;18.88;8.98;;;9.30;99.90;;;;;;5042748;28;20127;-80
2022/03/14 11:18:19;;;;;;;17.92;8.93;;;9.10;99.90;;;;;;5068988;28;20480;-80
2022/03/14 11:20:45;;;;;;;20.58;9.77;;;10.40;99.90;;;;;;5068277;28;20515;-79
2022/03/14 11:23:13;;;;;;;22.88;8.80;;;9.30;99.90;;;;;;5061264;28;20044;-80
2022/03/14 11:25:40;;;;;;;16.88;7.57;;;9.40;99.90;;;;;;5051801;28;20040;-80
2022/03/14 11:28:07;;;;;;;15.18;8.18;;;10.50;99.90;;;;;;5067451;28;20064;-80
2022/03/14 11:30:36;;;;;;;17.15;7.40;;;9.30;99.90;;;;;;5051923;28;20074;-80
2022/03/14 11:33:03;;;;;;;17.45;8.40;;;9.40;99.90;;;;;;5046314;28;20033;-81
2022/03/14 11:35:30;;;;;;;14.00;7.30;;;9.50;99.90;;;;;;5043337;28;20040;-79
2022/03/14 11:37:57;;;;;;;15.43;7.65;;;10.20;99.90;;;;;;5068258;28;20170;-80
2022/03/14 11:40:23;;;;;;;11.20;7.35;;;9.00;99.90;;;;;;5068698;28;20043;-81
2022/03/14 11:42:49;;;;;;;16.10;7.47;;;9.60;99.90;;;;;;5067968;28;20498;-80
2022/03/14 11:45:15;;;;;;;13.55;7.57;;;9.50;99.90;;;;;;5050326;28;20151;-78
2022/03/14 11:47:42;;;;;;;15.80;8.02;;;9.00;99.90;;;;;;5066182;28;20036;-76
2022/03/14 11:50:13;;;;;;;17.70;7.93;;;8.90;99.90;;;;;;4529635;28;10002584;-76
2022/03/14 11:52:41;;;;;;;17.45;8.05;;;9.50;99.90;;;;;;5047226;28;20040;-77
2022/03/14 11:55:27;;;;;;;16.90;8.45;;;9.30;99.90;;;;;;5064819;28;20061;-78
2022/03/14 11:57:52;;;;;;;15.50;7.90;;;10.60;99.90;;;;;;5047543;28;20044;-78
2022/03/14 12:00:27;;;;;;;19.90;8.60;;;9.50;99.90;;;;;;5064518;28;20041;-77
2022/03/14 12:02:55;;;;;;;20.48;8.30;;;9.50;99.90;;;;;;5061868;28;20045;-77
2022/03/14 12:05:42;;;;;;;18.58;7.75;;;9.70;99.90;;;;;;5063134;28;20326;-78
2022/03/14 12:08:13;;;;;;;11.88;8.00;;;9.70;99.90;;;;;;5060828;28;20048;-77
2022/03/14 12:10:39;;;;;;;18.83;8.73;;;9.70;99.90;;;;;;5049506;28;20355;-77
2022/03/14 12:13:05;;;;;;;22.55;10.30;;;11.50;99.90;;;;;;5047271;28;20488;-78
2022/03/14 12:15:39;;;;;;;19.23;10.50;;;9.00;99.90;;;;;;5067677;28;20033;-79
2022/03/14 12:18:23;;;;;;;19.50;9.73;;;11.60;99.90;;;;;;5060502;28;20084;-81
2022/03/14 12:20:50;;;;;;;17.60;9.80;;;9.50;99.90;;;;;;5050190;28;20048;-77
2022/03/14 12:23:33;;;;;;;21.02;11.02;;;9.80;99.90;;;;;;5067242;28;20511;-78
2022/03/14 12:26:39;;;;;;;21.52;11.73;;;9.80;99.90;;;;;;5043957;28;20043;-78
2022/03/14 12:29:32;;;;;;;21.45;11.20;;;9.90;99.90;;;;;;5008902;28;20520;-79
2022/03/14 12:32:23;;;;;;;21.17;8.65;;;10.10;99.90;;;;;;5001674;28;20037;-78
2022/03/14 12:35:08;;;;;;;25.58;10.82;;;10.20;99.90;;;;;;5065440;28;20110;-77
2022/03/14 12:37:37;;;;;;;28.70;10.85;;;10.10;99.90;;;;;;5069706;28;20384;-78
2022/03/14 12:40:04;;;;;;;26.98;9.93;;;11.70;99.90;;;;;;5070255;28;20112;-78
2022/03/14 12:42:42;;;;;;;21.00;10.55;;;10.20;99.90;;;;;;5055554;28;20045;-81
2022/03/14 12:45:38;;;;;;;28.77;10.05;;;12.10;99.90;;;;;;5063201;28;20042;-78
2022/03/14 12:48:15;;;;;;;20.38;9.70;;;10.20;99.90;;;;;;5063762;28;20044;-77
2022/03/14 12:50:50;;;;;;;18.70;8.80;;;10.20;99.90;;;;;;5071159;28;20029;-83
2022/03/14 12:53:27;;;;;;;18.52;10.32;;;10.90;99.90;;;;;;5053403;28;20094;-82